sensor_id;sensor_type;location;lat;lon;timestamp;pressure;altitude;pressure_sealevel;temperature;humidity
80139;BME280;69467;59.842;17.604;2024-01-16T00:01:15;99186.44;;;-13.52;100.00
80139;BME280;69467;59.842;17.604;2024-01-16T00:03:41;99194.34;;;-13.52;100.00
80139;BME280;69467;59.842;17.604;2024-01-16T00:06:07;99193.38;;;-13.51;100.00
80139;BME280;69467;59.842;17.604;2024-01-16T00:08:32;99199.91;;;-13.55;100.00
80139;BME280;69467;59.842;17.604;2024-01-16T00:10:58;99199.91;;;-13.55;100.00
80139;BME280;69467;59.842;17.604;2024-01-16T00:13:23;99194.09;;;-13.58;100.00
80139;BME280;69467;59.842;17.604;2024-01-16T00:15:49;99204.63;;;-13.58;100.00
80139;BME280;69467;59.842;17.604;2024-01-16T00:18:15;99203.13;;;-13.61;100.00
80139;BME280;69467;59.842;17.604;2024-01-16T00:20:41;99205.03;;;-13.63;100.00
80139;BME280;69467;59.842;17.604;2024-01-16T00:23:07;99212.94;;;-13.63;100.00
80139;BME280;69467;59.842;17.604;2024-01-16T00:25:32;99213.09;;;-13.65;100.00
80139;BME280;69467;59.842;17.604;2024-01-16T00:27:57;99208.09;;;-13.68;100.00
80139;BME280;69467;59.842;17.604;2024-01-16T00:30:23;99217.00;;;-13.69;100.00
80139;BME280;69467;59.842;17.604;2024-01-16T00:32:48;99223.38;;;-13.71;100.00
80139;BME280;69467;59.842;17.604;2024-01-16T00:35:14;99221.72;;;-13.72;100.00
80139;BME280;69467;59.842;17.604;2024-01-16T00:37:39;99220.06;;;-13.73;100.00
80139;BME280;69467;59.842;17.604;2024-01-16T00:40:05;99220.31;;;-13.77;100.00
80139;BME280;69467;59.842;17.604;2024-01-16T00:42:31;99230.19;;;-13.79;100.00
80139;BME280;69467;59.842;17.604;2024-01-16T00:44:57;99240.84;;;-13.80;100.00
80139;BME280;69467;59.842;17.604;2024-01-16T00:47:23;99244.31;;;-13.80;100.00
80139;BME280;69467;59.842;17.604;2024-01-16T00:49:49;99237.38;;;-13.81;100.00
80139;BME280;69467;59.842;17.604;2024-01-16T00:52:14;99246.25;;;-13.82;100.00
80139;BME280;69467;59.842;17.604;2024-01-16T00:54:40;99252.47;;;-13.83;100.00
80139;BME280;69467;59.842;17.604;2024-01-16T00:57:07;99252.34;;;-13.81;100.00
80139;BME280;69467;59.842;17.604;2024-01-16T00:59:32;99257.75;;;-13.83;100.00
80139;BME280;69467;59.842;17.604;2024-01-16T01:01:58;99254.44;;;-13.85;100.00
80139;BME280;69467;59.842;17.604;2024-01-16T01:04:23;99264.81;;;-13.83;100.00
80139;BME280;69467;59.842;17.604;2024-01-16T01:06:48;99263.31;;;-13.86;100.00
80139;BME280;69467;59.842;17.604;2024-01-16T01:09:14;99259.97;;;-13.88;100.00
80139;BME280;69467;59.842;17.604;2024-01-16T01:11:39;99267.31;;;-13.92;100.00
80139;BME280;69467;59.842;17.604;2024-01-16T01:14:05;99274.38;;;-13.92;100.00
80139;BME280;69467;59.842;17.604;2024-01-16T01:16:31;99273.84;;;-13.96;100.00
80139;BME280;69467;59.842;17.604;2024-01-16T01:18:56;99271.34;;;-13.97;100.00
80139;BME280;69467;59.842;17.604;2024-01-16T01:21:22;99276.72;;;-13.99;100.00
80139;BME280;69467;59.842;17.604;2024-01-16T01:23:47;99284.06;;;-14.02;100.00
80139;BME280;69467;59.842;17.604;2024-01-16T01:26:13;99293.78;;;-14.03;100.00
80139;BME280;69467;59.842;17.604;2024-01-16T01:28:43;99295.03;;;-14.07;100.00
80139;BME280;69467;59.842;17.604;2024-01-16T01:31:10;99288.25;;;-14.10;100.00
80139;BME280;69467;59.842;17.604;2024-01-16T01:33:35;99289.06;;;-14.09;100.00
80139;BME280;69467;59.842;17.604;2024-01-16T01:36:01;99288.38;;;-14.11;100.00
80139;BME280;69467;59.842;17.604;2024-01-16T01:38:26;99293.78;;;-14.13;100.00
80139;BME280;69467;59.842;17.604;2024-01-16T01:40:52;99305.16;;;-14.12;100.00
80139;BME280;69467;59.842;17.604;2024-01-16T01:43:21;99307.91;;;-14.14;100.00
80139;BME280;69467;59.842;17.604;2024-01-16T01:46:11;99302.63;;;-14.14;100.00
80139;BME280;69467;59.842;17.604;2024-01-16T01:48:38;99294.88;;;-14.15;100.00
80139;BME280;69467;59.842;17.604;2024-01-16T01:51:05;99303.47;;;-14.13;100.00
80139;BME280;69467;59.842;17.604;2024-01-16T01:53:33;99308.03;;;-14.15;100.00
80139;BME280;69467;59.842;17.604;2024-01-16T01:55:59;99317.59;;;-14.14;100.00
80139;BME280;69467;59.842;17.604;2024-01-16T01:58:27;99318.72;;;-14.17;100.00
80139;BME280;69467;59.842;17.604;2024-01-16T02:00:53;99318.84;;;-14.18;100.00
80139;BME280;69467;59.842;17.604;2024-01-16T02:03:18;99330.19;;;-14.18;100.00
80139;BME280;69467;59.842;17.604;2024-01-16T02:05:45;99330.34;;;-14.19;100.00
80139;BME280;69467;59.842;17.604;2024-01-16T02:08:11;99328.66;;;-14.20;100.00
80139;BME280;69467;59.842;17.604;2024-01-16T02:10:38;99318.41;;;-14.23;100.00
80139;BME280;69467;59.842;17.604;2024-01-16T02:13:07;99333.38;;;-14.24;100.00
80139;BME280;69467;59.842;17.604;2024-01-16T02:15:33;99327.25;;;-14.25;100.00
80139;BME280;69467;59.842;17.604;2024-01-16T02:17:58;99344.03;;;-14.26;100.00
80139;BME280;69467;59.842;17.604;2024-01-16T02:20:24;99337.38;;;-14.30;100.00
80139;BME280;69467;59.842;17.604;2024-01-16T02:22:50;99333.06;;;-14.31;100.00
80139;BME280;69467;59.842;17.604;2024-01-16T02:25:17;99331.44;;;-14.32;100.00
80139;BME280;69467;59.842;17.604;2024-01-16T02:27:43;99338.75;;;-14.35;100.00
80139;BME280;69467;59.842;17.604;2024-01-16T02:30:09;99344.00;;;-14.35;100.00
80139;BME280;69467;59.842;17.604;2024-01-16T02:32:34;99351.19;;;-14.37;100.00
80139;BME280;69467;59.842;17.604;2024-01-16T02:34:59;99348.72;;;-14.39;100.00
80139;BME280;69467;59.842;17.604;2024-01-16T02:37:25;99349.53;;;-14.38;100.00
80139;BME280;69467;59.842;17.604;2024-01-16T02:39:50;99352.31;;;-14.40;100.00
80139;BME280;69467;59.842;17.604;2024-01-16T02:42:16;99362.97;;;-14.42;100.00
80139;BME280;69467;59.842;17.604;2024-01-16T02:44:41;99370.00;;;-14.42;100.00
80139;BME280;69467;59.842;17.604;2024-01-16T02:47:07;99371.09;;;-14.45;100.00
80139;BME280;69467;59.842;17.604;2024-01-16T02:49:32;99366.00;;;-14.46;100.00
80139;BME280;69467;59.842;17.604;2024-01-16T02:51:58;99370.44;;;-14.47;100.00
80139;BME280;69467;59.842;17.604;2024-01-16T02:54:24;99365.41;;;-14.50;100.00
80139;BME280;69467;59.842;17.604;2024-01-16T02:56:49;99360.44;;;-14.53;100.00
80139;BME280;69467;59.842;17.604;2024-01-16T02:59:15;99371.78;;;-14.52;100.00
80139;BME280;69467;59.842;17.604;2024-01-16T03:01:40;99381.34;;;-14.51;100.00
80139;BME280;69467;59.842;17.604;2024-01-16T03:04:06;99391.00;;;-14.52;100.00
80139;BME280;69467;59.842;17.604;2024-01-16T03:06:31;99392.00;;;-14.53;100.00
80139;BME280;69467;59.842;17.604;2024-01-16T03:08:57;99384.22;;;-14.54;100.00
80139;BME280;69467;59.842;17.604;2024-01-16T03:11:22;99390.03;;;-14.51;100.00
80139;BME280;69467;59.842;17.604;2024-01-16T03:13:47;99398.22;;;-14.54;100.00
80139;BME280;69467;59.842;17.604;2024-01-16T03:16:15;99389.63;;;-14.56;100.00
80139;BME280;69467;59.842;17.604;2024-01-16T03:18:41;99396.41;;;-14.53;100.00
80139;BME280;69467;59.842;17.604;2024-01-16T03:21:06;99397.25;;;-14.53;100.00
80139;BME280;69467;59.842;17.604;2024-01-16T03:23:32;99411.34;;;-14.54;100.00
80139;BME280;69467;59.842;17.604;2024-01-16T03:25:57;99409.69;;;-14.55;100.00
80139;BME280;69467;59.842;17.604;2024-01-16T03:28:23;99418.53;;;-14.56;100.00
80139;BME280;69467;59.842;17.604;2024-01-16T03:30:48;99423.94;;;-14.58;100.00
80139;BME280;69467;59.842;17.604;2024-01-16T03:33:14;99428.34;;;-14.58;100.00
80139;BME280;69467;59.842;17.604;2024-01-16T03:35:39;99424.03;;;-14.59;100.00
80139;BME280;69467;59.842;17.604;2024-01-16T03:38:04;99432.06;;;-14.61;100.00
80139;BME280;69467;59.842;17.604;2024-01-16T03:40:30;99439.94;;;-14.61;100.00
80139;BME280;69467;59.842;17.604;2024-01-16T03:43:02;99423.50;;;-14.63;100.00
80139;BME280;69467;59.842;17.604;2024-01-16T03:45:27;99438.41;;;-14.63;100.00
80139;BME280;69467;59.842;17.604;2024-01-16T03:47:53;99435.13;;;-14.65;100.00
80139;BME280;69467;59.842;17.604;2024-01-16T03:50:18;99434.44;;;-14.67;100.00
80139;BME280;69467;59.842;17.604;2024-01-16T03:52:44;99438.72;;;-14.66;100.00
80139;BME280;69467;59.842;17.604;2024-01-16T03:55:09;99435.53;;;-14.70;100.00
80139;BME280;69467;59.842;17.604;2024-01-16T03:57:34;99439.84;;;-14.69;100.00
80139;BME280;69467;59.842;17.604;2024-01-16T04:00:00;99436.50;;;-14.71;100.00
80139;BME280;69467;59.842;17.604;2024-01-16T04:02:25;99445.47;;;-14.74;100.00
80139;BME280;69467;59.842;17.604;2024-01-16T04:04:51;99455.03;;;-14.72;100.00
80139;BME280;69467;59.842;17.604;2024-01-16T04:07:16;99452.41;;;-14.72;100.00
80139;BME280;69467;59.842;17.604;2024-01-16T04:09:42;99450.59;;;-14.72;100.00
80139;BME280;69467;59.842;17.604;2024-01-16T04:12:08;99457.50;;;-14.71;100.00
80139;BME280;69467;59.842;17.604;2024-01-16T04:14:34;99453.34;;;-14.74;100.00
80139;BME280;69467;59.842;17.604;2024-01-16T04:16:59;99450.72;;;-14.74;100.00
80139;BME280;69467;59.842;17.604;2024-01-16T04:19:24;99448.09;;;-14.74;100.00
80139;BME280;69467;59.842;17.604;2024-01-16T04:21:50;99445.03;;;-14.79;100.00
80139;BME280;69467;59.842;17.604;2024-01-16T04:24:15;99444.91;;;-14.77;100.00
80139;BME280;69467;59.842;17.604;2024-01-16T04:26:40;99439.66;;;-14.77;100.00
80139;BME280;69467;59.842;17.604;2024-01-16T04:29:06;99437.00;;;-14.77;100.00
80139;BME280;69467;59.842;17.604;2024-01-16T04:31:38;99438.13;;;-14.80;100.00
80139;BME280;69467;59.842;17.604;2024-01-16T04:34:05;99434.34;;;-14.87;100.00
80139;BME280;69467;59.842;17.604;2024-01-16T04:36:30;99442.22;;;-14.87;100.00
80139;BME280;69467;59.842;17.604;2024-01-16T04:38:56;99438.31;;;-14.93;100.00
80139;BME280;69467;59.842;17.604;2024-01-16T04:41:21;99457.41;;;-14.91;100.00
80139;BME280;69467;59.842;17.604;2024-01-16T04:43:47;99457.66;;;-14.94;100.00
80139;BME280;69467;59.842;17.604;2024-01-16T04:46:14;99456.59;;;-14.91;100.00
80139;BME280;69467;59.842;17.604;2024-01-16T04:48:40;99462.78;;;-14.92;100.00
80139;BME280;69467;59.842;17.604;2024-01-16T04:51:05;99462.09;;;-14.94;100.00
80139;BME280;69467;59.842;17.604;2024-01-16T04:53:31;99469.00;;;-14.93;100.00
80139;BME280;69467;59.842;17.604;2024-01-16T04:55:56;99470.09;;;-14.96;100.00
80139;BME280;69467;59.842;17.604;2024-01-16T04:58:21;99465.94;;;-14.98;100.00
80139;BME280;69467;59.842;17.604;2024-01-16T05:00:47;99479.91;;;-14.98;100.00
80139;BME280;69467;59.842;17.604;2024-01-16T05:03:12;99475.59;;;-14.99;100.00
80139;BME280;69467;59.842;17.604;2024-01-16T05:05:37;99477.53;;;-15.01;100.00
80139;BME280;69467;59.842;17.604;2024-01-16T05:08:03;99478.63;;;-15.03;100.00
80139;BME280;69467;59.842;17.604;2024-01-16T05:10:28;99474.44;;;-15.06;100.00
80139;BME280;69467;59.842;17.604;2024-01-16T05:12:54;99481.50;;;-15.07;100.00
80139;BME280;69467;59.842;17.604;2024-01-16T05:15:19;99483.41;;;-15.09;100.00
80139;BME280;69467;59.842;17.604;2024-01-16T05:17:45;99492.28;;;-15.10;100.00
80139;BME280;69467;59.842;17.604;2024-01-16T05:20:11;99478.44;;;-15.12;100.00
80139;BME280;69467;59.842;17.604;2024-01-16T05:22:36;99483.09;;;-15.15;100.00
80139;BME280;69467;59.842;17.604;2024-01-16T05:25:03;99484.34;;;-15.19;100.00
80139;BME280;69467;59.842;17.604;2024-01-16T05:27:29;99488.72;;;-15.20;100.00
80139;BME280;69467;59.842;17.604;2024-01-16T05:29:54;99488.72;;;-15.20;100.00
80139;BME280;69467;59.842;17.604;2024-01-16T05:32:20;99488.72;;;-15.20;100.00
80139;BME280;69467;59.842;17.604;2024-01-16T05:34:45;99487.31;;;-15.24;100.00
80139;BME280;69467;59.842;17.604;2024-01-16T05:37:11;99490.19;;;-15.27;100.00
80139;BME280;69467;59.842;17.604;2024-01-16T05:39:37;99489.25;;;-15.26;100.00
80139;BME280;69467;59.842;17.604;2024-01-16T05:42:02;99494.50;;;-15.26;100.00
80139;BME280;69467;59.842;17.604;2024-01-16T05:44:28;99494.34;;;-15.25;100.00
80139;BME280;69467;59.842;17.604;2024-01-16T05:46:53;99497.97;;;-15.26;100.00
80139;BME280;69467;59.842;17.604;2024-01-16T05:49:18;99503.22;;;-15.26;100.00
80139;BME280;69467;59.842;17.604;2024-01-16T05:51:44;99510.38;;;-15.28;100.00
80139;BME280;69467;59.842;17.604;2024-01-16T05:54:09;99500.97;;;-15.30;100.00
80139;BME280;69467;59.842;17.604;2024-01-16T05:56:35;99510.63;;;-15.31;100.00
80139;BME280;69467;59.842;17.604;2024-01-16T05:59:00;99504.28;;;-15.28;100.00
80139;BME280;69467;59.842;17.604;2024-01-16T06:01:25;99498.06;;;-15.27;100.00
80139;BME280;69467;59.842;17.604;2024-01-16T06:03:52;99505.94;;;-15.27;100.00
80139;BME280;69467;59.842;17.604;2024-01-16T06:06:17;99503.44;;;-15.29;100.00
80139;BME280;69467;59.842;17.604;2024-01-16T06:08:44;99505.50;;;-15.32;100.00
80139;BME280;69467;59.842;17.604;2024-01-16T06:11:09;99516.00;;;-15.32;100.00
80139;BME280;69467;59.842;17.604;2024-01-16T06:13:36;99517.09;;;-15.35;100.00
80139;BME280;69467;59.842;17.604;2024-01-16T06:16:01;99520.94;;;-15.39;100.00
80139;BME280;69467;59.842;17.604;2024-01-16T06:18:28;99517.84;;;-15.44;100.00
80139;BME280;69467;59.842;17.604;2024-01-16T06:20:53;99517.13;;;-15.46;100.00
80139;BME280;69467;59.842;17.604;2024-01-16T06:23:18;99532.75;;;-15.45;100.00
80139;BME280;69467;59.842;17.604;2024-01-16T06:25:45;99527.50;;;-15.45;100.00
80139;BME280;69467;59.842;17.604;2024-01-16T06:28:10;99524.88;;;-15.45;100.00
80139;BME280;69467;59.842;17.604;2024-01-16T06:30:36;99526.09;;;-15.49;100.00
80139;BME280;69467;59.842;17.604;2024-01-16T06:33:02;99531.34;;;-15.49;100.00
80139;BME280;69467;59.842;17.604;2024-01-16T06:35:27;99527.88;;;-15.49;100.00
80139;BME280;69467;59.842;17.604;2024-01-16T06:37:53;99535.75;;;-15.49;100.00
80139;BME280;69467;59.842;17.604;2024-01-16T06:40:18;99537.19;;;-15.57;100.00
80139;BME280;69467;59.842;17.604;2024-01-16T06:42:44;99537.31;;;-15.58;100.00
80139;BME280;69467;59.842;17.604;2024-01-16T06:45:09;99539.34;;;-15.62;100.00
80139;BME280;69467;59.842;17.604;2024-01-16T06:47:35;99543.06;;;-15.64;100.00
80139;BME280;69467;59.842;17.604;2024-01-16T06:50:00;99548.66;;;-15.69;100.00
80139;BME280;69467;59.842;17.604;2024-01-16T06:52:26;99556.66;;;-15.71;100.00
80139;BME280;69467;59.842;17.604;2024-01-16T06:54:51;99562.88;;;-15.72;100.00
80139;BME280;69467;59.842;17.604;2024-01-16T06:57:16;99558.81;;;-15.76;100.00
80139;BME280;69467;59.842;17.604;2024-01-16T06:59:42;99560.50;;;-15.75;100.00
80139;BME280;69467;59.842;17.604;2024-01-16T07:02:07;99550.97;;;-15.76;100.00
80139;BME280;69467;59.842;17.604;2024-01-16T07:04:33;99563.34;;;-15.78;100.00
80139;BME280;69467;59.842;17.604;2024-01-16T07:06:59;99565.03;;;-15.77;100.00
80139;BME280;69467;59.842;17.604;2024-01-16T07:09:25;99553.59;;;-15.76;100.00
80139;BME280;69467;59.842;17.604;2024-01-16T07:11:50;99563.13;;;-15.75;100.00
80139;BME280;69467;59.842;17.604;2024-01-16T07:14:16;99563.94;;;-15.74;100.00
80139;BME280;69467;59.842;17.604;2024-01-16T07:16:41;99561.72;;;-15.79;100.00
80139;BME280;69467;59.842;17.604;2024-01-16T07:19:08;99563.88;;;-15.84;100.00
80139;BME280;69467;59.842;17.604;2024-01-16T07:21:33;99574.63;;;-15.87;100.00
80139;BME280;69467;59.842;17.604;2024-01-16T07:23:59;99573.19;;;-15.91;100.00
80139;BME280;69467;59.842;17.604;2024-01-16T07:26:24;99570.81;;;-15.94;100.00
80139;BME280;69467;59.842;17.604;2024-01-16T07:28:50;99573.91;;;-16.00;100.00
80139;BME280;69467;59.842;17.604;2024-01-16T07:31:15;99583.69;;;-16.02;100.00
80139;BME280;69467;59.842;17.604;2024-01-16T07:33:43;99578.69;;;-16.06;100.00
80139;BME280;69467;59.842;17.604;2024-01-16T07:36:09;99578.22;;;-16.11;100.00
80139;BME280;69467;59.842;17.604;2024-01-16T07:38:37;99571.66;;;-16.16;100.00
80139;BME280;69467;59.842;17.604;2024-01-16T07:41:03;99593.22;;;-16.13;100.00
80139;BME280;69467;59.842;17.604;2024-01-16T07:43:29;99593.94;;;-16.11;100.00
80139;BME280;69467;59.842;17.604;2024-01-16T07:45:55;99595.72;;;-16.11;100.00
80139;BME280;69467;59.842;17.604;2024-01-16T07:48:21;99591.53;;;-16.14;100.00
80139;BME280;69467;59.842;17.604;2024-01-16T07:50:47;99598.69;;;-16.16;100.00
80139;BME280;69467;59.842;17.604;2024-01-16T07:53:13;99594.50;;;-16.18;100.00
80139;BME280;69467;59.842;17.604;2024-01-16T07:55:39;99588.31;;;-16.17;100.00
80139;BME280;69467;59.842;17.604;2024-01-16T07:58:04;99591.06;;;-16.19;100.00
80139;BME280;69467;59.842;17.604;2024-01-16T08:00:30;99589.41;;;-16.20;100.00
80139;BME280;69467;59.842;17.604;2024-01-16T08:02:55;99590.00;;;-16.16;100.00
80139;BME280;69467;59.842;17.604;2024-01-16T08:05:21;99591.06;;;-16.19;100.00
80139;BME280;69467;59.842;17.604;2024-01-16T08:07:51;99583.34;;;-16.21;100.00
80139;BME280;69467;59.842;17.604;2024-01-16T08:10:16;99584.97;;;-16.20;100.00
80139;BME280;69467;59.842;17.604;2024-01-16T08:12:42;99582.13;;;-16.16;100.00
80139;BME280;69467;59.842;17.604;2024-01-16T08:15:08;99579.38;;;-16.15;100.00
80139;BME280;69467;59.842;17.604;2024-01-16T08:17:34;99579.97;;;-16.11;100.00
80139;BME280;69467;59.842;17.604;2024-01-16T08:19:59;99573.91;;;-16.12;100.00
80139;BME280;69467;59.842;17.604;2024-01-16T08:22:25;99582.00;;;-16.15;100.00
80139;BME280;69467;59.842;17.604;2024-01-16T08:24:50;99583.47;;;-16.11;100.00
80139;BME280;69467;59.842;17.604;2024-01-16T08:27:15;99595.59;;;-16.10;100.00
80139;BME280;69467;59.842;17.604;2024-01-16T08:29:42;99595.84;;;-16.13;100.00
80139;BME280;69467;59.842;17.604;2024-01-16T08:32:07;99601.09;;;-16.13;100.00
80139;BME280;69467;59.842;17.604;2024-01-16T08:34:33;99605.25;;;-16.10;100.00
80139;BME280;69467;59.842;17.604;2024-01-16T08:36:58;99601.91;;;-16.12;100.00
80139;BME280;69467;59.842;17.604;2024-01-16T08:39:24;99595.03;;;-16.13;100.00
80139;BME280;69467;59.842;17.604;2024-01-16T08:41:50;99603.34;;;-16.08;100.00
80139;BME280;69467;59.842;17.604;2024-01-16T08:44:15;99598.47;;;-16.13;100.00
80139;BME280;69467;59.842;17.604;2024-01-16T08:46:41;99594.63;;;-15.97;100.00
80139;BME280;69467;59.842;17.604;2024-01-16T08:49:06;99588.97;;;-15.59;100.00
80139;BME280;69467;59.842;17.604;2024-01-16T08:51:31;99590.06;;;-14.12;100.00
80139;BME280;69467;59.842;17.604;2024-01-16T08:53:57;99597.91;;;-12.32;100.00
80139;BME280;69467;59.842;17.604;2024-01-16T08:56:22;99586.13;;;-11.17;95.61
80139;BME280;69467;59.842;17.604;2024-01-16T08:58:47;99593.03;;;-9.91;92.96
80139;BME280;69467;59.842;17.604;2024-01-16T09:01:13;99582.44;;;-8.72;85.84
80139;BME280;69467;59.842;17.604;2024-01-16T09:03:38;99583.53;;;-7.52;82.26
80139;BME280;69467;59.842;17.604;2024-01-16T09:06:04;99577.94;;;-6.33;74.93
80139;BME280;69467;59.842;17.604;2024-01-16T09:08:29;99571.81;;;-5.74;63.92
80139;BME280;69467;59.842;17.604;2024-01-16T09:10:56;99575.22;;;-4.98;60.57
80139;BME280;69467;59.842;17.604;2024-01-16T09:13:21;99580.38;;;-4.03;59.93
80139;BME280;69467;59.842;17.604;2024-01-16T09:15:49;99570.25;;;-2.63;54.78
80139;BME280;69467;59.842;17.604;2024-01-16T09:18:15;99566.56;;;-2.28;49.18
80139;BME280;69467;59.842;17.604;2024-01-16T09:20:44;99565.28;;;-1.79;47.79
80139;BME280;69467;59.842;17.604;2024-01-16T09:23:09;99571.09;;;-1.23;47.27
80139;BME280;69467;59.842;17.604;2024-01-16T09:25:34;99560.91;;;-0.69;45.74
80139;BME280;69467;59.842;17.604;2024-01-16T09:28:00;99574.09;;;-0.28;44.43
80139;BME280;69467;59.842;17.604;2024-01-16T09:30:25;99574.88;;;0.23;42.15
80139;BME280;69467;59.842;17.604;2024-01-16T09:32:51;99576.69;;;0.47;42.13
80139;BME280;69467;59.842;17.604;2024-01-16T09:35:16;99576.06;;;0.83;40.68
80139;BME280;69467;59.842;17.604;2024-01-16T09:37:42;99578.09;;;0.87;41.46
80139;BME280;69467;59.842;17.604;2024-01-16T09:40:07;99578.44;;;1.40;41.43
80139;BME280;69467;59.842;17.604;2024-01-16T09:42:33;99584.75;;;0.29;41.80
80139;BME280;69467;59.842;17.604;2024-01-16T09:45:00;99597.72;;;-2.40;45.73
80139;BME280;69467;59.842;17.604;2024-01-16T09:47:25;99604.22;;;-3.74;48.66
80139;BME280;69467;59.842;17.604;2024-01-16T09:49:51;99606.19;;;-4.61;49.87
80139;BME280;69467;59.842;17.604;2024-01-16T09:52:18;99602.34;;;-5.46;50.64
80139;BME280;69467;59.842;17.604;2024-01-16T09:54:43;99598.34;;;-6.25;51.27
80139;BME280;69467;59.842;17.604;2024-01-16T09:57:10;99605.81;;;-6.90;52.01
80139;BME280;69467;59.842;17.604;2024-01-16T09:59:39;99602.31;;;-7.46;52.66
80139;BME280;69467;59.842;17.604;2024-01-16T10:02:05;99610.94;;;-8.16;52.99
80139;BME280;69467;59.842;17.604;2024-01-16T10:04:34;99606.66;;;-8.83;53.39
80139;BME280;69467;59.842;17.604;2024-01-16T10:07:01;99600.28;;;-9.93;54.49
80139;BME280;69467;59.842;17.604;2024-01-16T10:09:27;99607.53;;;-10.29;56.69
80139;BME280;69467;59.842;17.604;2024-01-16T10:11:53;99609.41;;;-10.66;58.41
80139;BME280;69467;59.842;17.604;2024-01-16T10:14:19;99616.31;;;-11.19;61.51
80139;BME280;69467;59.842;17.604;2024-01-16T10:17:01;99610.50;;;-11.51;64.13
80139;BME280;69467;59.842;17.604;2024-01-16T10:19:51;99620.22;;;-11.79;66.23
80139;BME280;69467;59.842;17.604;2024-01-16T10:22:22;99621.06;;;-12.16;68.22
80139;BME280;69467;59.842;17.604;2024-01-16T10:24:50;99619.41;;;-12.17;70.07
80139;BME280;69467;59.842;17.604;2024-01-16T10:27:16;99622.31;;;-12.20;70.34
80139;BME280;69467;59.842;17.604;2024-01-16T10:29:55;99608.44;;;-11.85;71.20
80139;BME280;69467;59.842;17.604;2024-01-16T10:32:37;99622.41;;;-10.91;69.08
80139;BME280;69467;59.842;17.604;2024-01-16T10:37:30;99592.47;;;-3.37;48.69
80139;BME280;69467;59.842;17.604;2024-01-16T10:39:56;99582.88;;;-2.36;43.72
80139;BME280;69467;59.842;17.604;2024-01-16T10:42:22;99583.28;;;-0.75;40.09
80139;BME280;69467;59.842;17.604;2024-01-16T10:44:54;99587.47;;;0.47;38.63
80139;BME280;69467;59.842;17.604;2024-01-16T10:47:22;99582.34;;;0.39;38.12
80139;BME280;69467;59.842;17.604;2024-01-16T10:49:48;99584.25;;;-0.62;35.67
80139;BME280;69467;59.842;17.604;2024-01-16T10:52:14;99576.97;;;1.68;36.00
80139;BME280;69467;59.842;17.604;2024-01-16T10:54:43;99569.38;;;2.48;32.98
80139;BME280;69467;59.842;17.604;2024-01-16T10:57:13;99566.13;;;1.13;33.73
80139;BME280;69467;59.842;17.604;2024-01-16T11:00:03;99565.59;;;1.77;32.47
80139;BME280;69467;59.842;17.604;2024-01-16T11:05:22;99558.59;;;2.00;31.21
80139;BME280;69467;59.842;17.604;2024-01-16T11:07:48;99559.16;;;2.38;32.63
80139;BME280;69467;59.842;17.604;2024-01-16T11:10:15;99564.84;;;3.06;31.46
80139;BME280;69467;59.842;17.604;2024-01-16T11:12:41;99568.28;;;3.93;29.64
80139;BME280;69467;59.842;17.604;2024-01-16T11:15:07;99571.25;;;2.00;28.84
80139;BME280;69467;59.842;17.604;2024-01-16T11:17:33;99573.25;;;4.75;30.08
80139;BME280;69467;59.842;17.604;2024-01-16T11:20:02;99578.59;;;4.70;29.73
80139;BME280;69467;59.842;17.604;2024-01-16T11:22:37;99578.22;;;3.87;28.41
80139;BME280;69467;59.842;17.604;2024-01-16T11:25:14;99580.66;;;5.29;27.58
80139;BME280;69467;59.842;17.604;2024-01-16T11:27:41;99583.00;;;4.54;27.77
80139;BME280;69467;59.842;17.604;2024-01-16T11:30:09;99581.31;;;4.92;28.55
80139;BME280;69467;59.842;17.604;2024-01-16T11:32:40;99579.69;;;6.91;26.01
80139;BME280;69467;59.842;17.604;2024-01-16T11:35:10;99578.63;;;6.39;25.08
80139;BME280;69467;59.842;17.604;2024-01-16T11:37:39;99573.66;;;7.99;25.41
80139;BME280;69467;59.842;17.604;2024-01-16T11:40:32;99571.38;;;5.52;24.42
80139;BME280;69467;59.842;17.604;2024-01-16T11:42:58;99581.16;;;4.81;26.32
80139;BME280;69467;59.842;17.604;2024-01-16T11:50:33;99585.34;;;7.84;22.92
80139;BME280;69467;59.842;17.604;2024-01-16T11:52:58;99594.34;;;6.80;23.79
80139;BME280;69467;59.842;17.604;2024-01-16T11:55:33;99591.25;;;6.60;24.10
80139;BME280;69467;59.842;17.604;2024-01-16T12:00:40;99583.97;;;7.81;23.85
80139;BME280;69467;59.842;17.604;2024-01-16T12:03:07;99583.44;;;8.00;22.80
80139;BME280;69467;59.842;17.604;2024-01-16T12:05:33;99580.28;;;7.08;23.29
80139;BME280;69467;59.842;17.604;2024-01-16T12:07:58;99582.88;;;6.29;24.43
80139;BME280;69467;59.842;17.604;2024-01-16T12:10:25;99584.00;;;6.28;24.00
80139;BME280;69467;59.842;17.604;2024-01-16T12:12:51;99591.94;;;4.54;23.73
80139;BME280;69467;59.842;17.604;2024-01-16T12:15:22;99596.16;;;4.84;25.09
80139;BME280;69467;59.842;17.604;2024-01-16T12:18:02;99592.09;;;6.23;24.37
80139;BME280;69467;59.842;17.604;2024-01-16T12:20:32;99602.22;;;4.52;24.91
80139;BME280;69467;59.842;17.604;2024-01-16T12:23:02;99604.69;;;3.51;26.35
80139;BME280;69467;59.842;17.604;2024-01-16T12:25:29;99606.81;;;2.68;26.99
80139;BME280;69467;59.842;17.604;2024-01-16T12:27:59;99610.97;;;-0.74;30.95
80139;BME280;69467;59.842;17.604;2024-01-16T12:30:26;99618.94;;;-2.32;33.01
80139;BME280;69467;59.842;17.604;2024-01-16T12:33:11;99627.09;;;-3.99;35.84
80139;BME280;69467;59.842;17.604;2024-01-16T12:35:39;99623.88;;;-5.33;37.71
80139;BME280;69467;59.842;17.604;2024-01-16T12:38:06;99631.44;;;-5.67;38.25
80139;BME280;69467;59.842;17.604;2024-01-16T12:40:39;99627.97;;;-6.20;39.12
80139;BME280;69467;59.842;17.604;2024-01-16T12:43:06;99619.25;;;-7.15;40.90
80139;BME280;69467;59.842;17.604;2024-01-16T12:45:33;99625.97;;;-7.76;42.14
80139;BME280;69467;59.842;17.604;2024-01-16T12:48:00;99622.09;;;-8.21;43.36